Wauseon, Ohio
Current Conditions -  °F | °C
As of 8:35 PM on Thursday 27 Nov 2014 (Local Time) from KUSE Reporting Station
Overcast Overcast  
Wind Chill: 16°   Ceiling: 1900
Heat Index: 28°   Visibility: 10mi
Dew Point: 23°   Wind: 17mph
Humidity: 80%   Direction: 320°NW
Pressure: 30.29"   Gusts: NA
Location:  41.55°N, 84.13°W
Report Text: KUSE 280135Z AUTO 32015KT 10SM OVC019 M02/M05 A3029 RMK AO2
Loading
Personal Weather Stations






























Interactive Weather Map New forecast layout! Learn more

10-Day Weather Forecast

Advertisements
Track Severe Weather on mobile